Time;durP1;ratioP1;P1;durP2;ratioP2;P2;SDS_P1;SDS_P2;PMS_P1;PMS_P2;Temp;Humidity;BMP_temperature;BMP_pressure;BME280_temperature;BME280_humidity;BME280_pressure;Samples;Min_cycle;Max_cycle;Signal;HPM_P1;HPM_P2
2022/12/08 00:19:22;;;;;;;3.77;2.07;;;;;;;;;;20762558;28;20223;-69
2022/12/08 00:29:24;;;;;;;2.20;1.40;;;;;;;;;;20739910;28;20223;-69
2022/12/08 00:39:26;;;;;;;2.53;1.20;;;;;;;;;;20756971;28;20243;-69
2022/12/08 00:49:28;;;;;;;1.80;0.83;;;;;;;;;;20870818;22;20265;-66
2022/12/08 00:59:30;;;;;;;1.40;0.97;;;;;;;;;;20807602;28;20709;-65
2022/12/08 01:09:32;;;;;;;1.60;0.97;;;;;;;;;;20791232;28;20740;-65
2022/12/08 01:19:34;;;;;;;1.63;1.17;;;;;;;;;;20789170;28;20231;-65
2022/12/08 01:29:36;;;;;;;2.17;1.30;;;;;;;;;;20789248;28;20253;-65
2022/12/08 01:39:40;;;;;;;1.83;1.10;;;;;;;;;;20821531;28;20219;-64
2022/12/08 01:49:42;;;;;;;1.67;0.80;;;;;;;;;;20787695;28;20218;-65
2022/12/08 01:59:49;;;;;;;1.73;1.07;;;;;;;;;;20771623;28;20226;-65
2022/12/08 02:09:52;;;;;;;1.03;0.73;;;3.90;99.90;;;;;;20788121;28;20558;-65
2022/12/08 02:20:22;;;;;;;1.20;0.97;;;3.80;99.90;;;;;;20812949;28;20898;-66
2022/12/08 02:30:24;;;;;;;1.07;0.60;;;;;;;;;;20806533;28;20213;-65
2022/12/08 02:40:26;;;;;;;2.53;1.20;;;;;;;;;;20828786;28;20214;-65
2022/12/08 02:50:28;;;;;;;1.40;0.87;;;;;;;;;;20828828;28;20268;-65
2022/12/08 03:00:43;;;;;;;2.50;0.97;;;3.80;99.90;;;;;;20822942;28;20272;-66
2022/12/08 03:11:08;;;;;;;3.80;0.73;;;3.80;99.90;;;;;;20807479;28;20218;-65
2022/12/08 03:21:11;;;;;;;1.47;1.00;;;3.90;99.90;;;;;;20814936;28;20242;-65
2022/12/08 03:31:14;;;;;;;1.47;1.03;;;;;;;;;;20799724;28;20206;-65
2022/12/08 03:41:18;;;;;;;3.20;2.13;;;;;;;;;;20822320;28;20253;-65
2022/12/08 03:51:20;;;;;;;2.30;0.97;;;3.70;99.90;;;;;;20805930;28;20230;-66
2022/12/08 04:01:22;;;;;;;2.97;1.73;;;4.00;99.90;;;;;;20780623;28;20214;-65
2022/12/08 04:11:24;;;;;;;1.40;1.00;;;;;;;;;;20796206;28;20759;-65
2022/12/08 04:21:26;;;;;;;4.97;0.90;;;;;;;;;;20779490;28;20264;-65
2022/12/08 04:31:28;;;;;;;3.87;1.33;;;;;;;;;;20778444;28;20214;-65
2022/12/08 04:41:30;;;;;;;0.87;0.70;;;;;;;;;;20793537;28;20203;-65
2022/12/08 04:51:32;;;;;;;1.07;0.87;;;;;;;;;;20811587;28;20241;-65
2022/12/08 05:01:33;;;;;;;1.20;1.00;;;;;;;;;;20784514;28;20222;-65
2022/12/08 05:11:35;;;;;;;1.30;0.83;;;;;;;;;;20782293;28;20219;-66
2022/12/08 05:21:37;;;;;;;1.13;0.63;;;;;;;;;;20775165;28;20210;-66
2022/12/08 05:31:39;;;;;;;2.87;1.27;;;;;;;;;;20790110;28;20231;-66
2022/12/08 05:41:42;;;;;;;1.00;0.87;;;;;;;;;;20824750;28;20312;-65
2022/12/08 05:51:44;;;;;;;1.43;0.90;;;;;;;;;;20762986;28;20202;-65
2022/12/08 06:01:45;;;;;;;1.40;0.90;;;;;;;;;;20787458;28;20206;-66
2022/12/08 06:11:48;;;;;;;1.80;1.07;;;;;;;;;;20796843;28;20276;-65
2022/12/08 06:21:50;;;;;;;2.10;0.70;;;;;;;;;;20785886;28;20275;-65
2022/12/08 06:31:52;;;;;;;1.00;0.70;;;;;;;;;;20818570;28;20295;-65
2022/12/08 06:52:14;;;;;;;1.57;0.97;;;;;;;;;;20849775;22;20682;-69
2022/12/08 07:02:16;;;;;;;1.33;1.00;;;;;;;;;;20832854;28;21171;-69
2022/12/08 07:12:18;;;;;;;2.20;1.40;;;;;;;;;;20821625;28;20260;-69
2022/12/08 07:22:21;;;;;;;1.70;1.00;;;;;;;;;;20830503;28;20211;-69
2022/12/08 07:32:23;;;;;;;1.00;0.83;;;;;;;;;;20857523;28;20226;-69
2022/12/08 07:42:25;;;;;;;1.40;0.90;;;;;;;;;;20839252;28;20218;-68
2022/12/08 07:52:27;;;;;;;1.47;0.60;;;;;;;;;;20836711;28;20323;-69
2022/12/08 08:02:29;;;;;;;1.67;1.10;;;;;;;;;;20868652;28;20296;-69
2022/12/08 08:12:30;;;;;;;1.60;1.10;;;;;;;;;;20829304;28;20211;-69
2022/12/08 08:22:32;;;;;;;3.13;1.27;;;;;;;;;;20847065;28;20215;-69
2022/12/08 08:32:34;;;;;;;1.57;1.00;;;3.50;99.90;;;;;;20843239;28;21794;-69
2022/12/08 08:42:36;;;;;;;1.43;0.97;;;;;;;;;;20845714;28;20639;-68
2022/12/08 08:52:38;;;;;;;3.77;2.67;;;;;;;;;;20833529;28;20234;-69
2022/12/08 09:02:40;;;;;;;3.20;1.90;;;;;;;;;;20827092;28;20910;-69
2022/12/08 09:12:42;;;;;;;3.30;2.20;;;;;;;;;;20829606;28;20273;-69
2022/12/08 09:22:43;;;;;;;2.20;1.43;;;;;;;;;;20825184;28;20211;-68
2022/12/08 09:32:45;;;;;;;1.90;1.13;;;;;;;;;;20832158;28;20283;-67
2022/12/08 09:43:07;;;;;;;2.67;1.43;;;3.80;99.90;;;;;;20815855;28;20280;-67
2022/12/08 09:53:12;;;;;;;2.27;1.70;;;3.90;99.90;;;;;;20814189;28;20284;-67
2022/12/08 10:03:15;;;;;;;1.60;1.03;;;;;;;;;;20816714;28;20234;-67
2022/12/08 10:13:29;;;;;;;1.60;1.37;;;;;;;;;;20815364;28;20218;-67
2022/12/08 10:23:34;;;;;;;5.67;1.83;;;4.10;99.90;;;;;;20815729;28;20210;-67
2022/12/08 10:33:36;;;;;;;1.80;1.20;;;;;;;;;;20767222;28;20706;-67
2022/12/08 10:43:41;;;;;;;2.17;1.37;;;;;;;;;;20732237;28;20223;-67
2022/12/08 10:53:46;;;;;;;1.87;1.00;;;;;;;;;;20780620;28;20272;-67
2022/12/08 11:03:50;;;;;;;1.63;0.97;;;;;;;;;;20846897;28;20250;-68
2022/12/08 11:13:51;;;;;;;1.90;1.10;;;;;;;;;;20840864;28;20379;-68
2022/12/08 11:23:53;;;;;;;1.87;1.50;;;;;;;;;;20846165;28;20210;-68
2022/12/08 11:33:55;;;;;;;2.27;1.10;;;;;;;;;;20831767;28;20223;-68
2022/12/08 11:44:21;;;;;;;2.13;1.10;;;4.30;99.90;;;;;;20829360;28;20580;-68
2022/12/08 11:54:29;;;;;;;2.00;1.30;;;4.40;99.90;;;;;;20828260;28;20223;-67
2022/12/08 12:04:41;;;;;;;2.90;1.43;;;4.40;99.90;;;;;;20827938;28;20222;-67
2022/12/08 12:15:06;;;;;;;1.63;1.10;;;4.50;99.90;;;;;;20827094;28;20256;-67
2022/12/08 12:25:17;;;;;;;1.80;1.27;;;4.50;99.90;;;;;;20826526;28;20210;-67
2022/12/08 12:35:31;;;;;;;3.60;1.70;;;4.60;99.90;;;;;;20824696;28;20213;-68
2022/12/08 12:45:34;;;;;;;1.80;1.20;;;4.50;99.90;;;;;;20846039;28;20268;-69
2022/12/08 12:55:54;;;;;;;2.07;1.30;;;;;;;;;;20824236;28;20268;-70
2022/12/08 13:05:56;;;;;;;1.77;1.40;;;;;;;;;;20822916;28;20229;-69
2022/12/08 13:16:07;;;;;;;3.13;1.37;;;4.80;99.90;;;;;;20822237;28;20280;-69
2022/12/08 13:26:12;;;;;;;1.93;1.13;;;;;;;;;;20826725;28;20580;-69
2022/12/08 13:36:18;;;;;;;1.90;1.07;;;;;;;;;;20846563;22;20257;-66
2022/12/08 13:46:28;;;;;;;1.57;0.97;;;;;;;;;;20716110;28;20258;-67
2022/12/08 13:56:34;;;;;;;3.57;1.70;;;;;;;;;;20698940;28;20612;-67
2022/12/08 14:06:40;;;;;;;1.30;0.90;;;4.80;99.90;;;;;;20703606;28;20203;-66
2022/12/08 14:16:48;;;;;;;1.40;0.83;;;4.70;99.90;;;;;;20714163;28;20269;-66
2022/12/08 14:26:54;;;;;;;1.70;1.23;;;4.60;99.90;;;;;;20710231;28;20273;-66
2022/12/08 14:36:56;;;;;;;2.20;1.27;;;;;;;;;;20719772;28;20227;-66
2022/12/08 14:47:08;;;;;;;1.50;0.80;;;;;;;;;;20743637;28;20223;-66
2022/12/08 14:57:13;;;;;;;1.03;0.87;;;;;;;;;;20718689;28;20227;-66
2022/12/08 15:07:22;;;;;;;2.20;1.20;;;;;;;;;;20689030;28;20273;-66
2022/12/08 15:17:33;;;;;;;3.53;1.70;;;;;;;;;;20710340;28;20250;-65
2022/12/08 15:27:35;;;;;;;1.80;1.23;;;;;;;;;;20699135;28;20565;-65
2022/12/08 15:37:37;;;;;;;2.60;1.27;;;;;;;;;;20704234;28;20345;-65
2022/12/08 15:47:40;;;;;;;1.63;1.13;;;;;;;;;;20697323;28;20227;-65
2022/12/08 15:57:44;;;;;;;1.60;0.87;;;;;;;;;;20712092;28;20460;-65
2022/12/08 16:07:46;;;;;;;1.50;1.13;;;;;;;;;;20679289;28;20810;-65
2022/12/08 16:17:48;;;;;;;1.60;1.40;;;;;;;;;;20721947;28;20230;-66
2022/12/08 16:27:52;;;;;;;4.23;1.53;;;;;;;;;;20739373;28;20878;-65
2022/12/08 16:37:54;;;;;;;2.90;1.57;;;;;;;;;;20719092;28;20710;-65
2022/12/08 16:47:57;;;;;;;2.00;1.23;;;;;;;;;;20719228;28;20277;-65
2022/12/08 16:57:59;;;;;;;1.57;1.40;;;;;;;;;;20707004;28;20305;-65
2022/12/08 17:08:02;;;;;;;2.77;1.53;;;;;;;;;;20730644;28;20227;-65
2022/12/08 17:18:04;;;;;;;1.77;1.40;;;;;;;;;;20676243;28;20236;-66
2022/12/08 17:28:06;;;;;;;4.40;2.17;;;;;;;;;;20684238;28;20277;-66
2022/12/08 17:38:08;;;;;;;4.30;2.30;;;;;;;;;;20728225;28;20250;-65
2022/12/08 17:48:11;;;;;;;2.67;2.03;;;;;;;;;;20698390;28;20288;-65
2022/12/08 17:58:13;;;;;;;3.03;1.60;;;;;;;;;;20723308;28;20588;-66
2022/12/08 18:08:16;;;;;;;2.47;1.47;;;;;;;;;;20694859;28;20257;-66
2022/12/08 18:18:18;;;;;;;2.43;1.63;;;;;;;;;;20663047;28;20767;-66
2022/12/08 18:28:21;;;;;;;3.90;1.97;;;;;;;;;;20677793;28;20647;-66
2022/12/08 18:38:22;;;;;;;3.93;1.80;;;;;;;;;;20711375;28;20313;-66
2022/12/08 18:48:24;;;;;;;3.77;2.00;;;;;;;;;;20722917;28;20223;-66
2022/12/08 18:58:26;;;;;;;3.97;2.10;;;;;;;;;;20661434;28;20553;-66
2022/12/08 19:08:29;;;;;;;3.13;1.63;;;;;;;;;;20678396;28;20239;-66
2022/12/08 19:18:32;;;;;;;2.40;1.60;;;;;;;;;;20723246;28;20651;-66
2022/12/08 19:28:34;;;;;;;2.47;2.03;;;3.80;99.90;;;;;;20745546;28;20238;-67
2022/12/08 19:48:58;;;;;;;2.07;1.43;;;;;;;;;;20738105;28;20223;-66
2022/12/08 19:58:59;;;;;;;2.30;2.03;;;;;;;;;;20705273;28;20613;-66
2022/12/08 20:09:03;;;;;;;4.77;1.77;;;;;;;;;;20747134;28;20690;-66
2022/12/08 20:19:12;;;;;;;2.30;1.50;;;;;;;;;;20725281;28;20235;-65
2022/12/08 20:29:28;;;;;;;3.10;1.93;;;;;;;;;;20720908;28;20269;-66
2022/12/08 20:39:30;;;;;;;3.67;1.80;;;;;;;;;;20721116;22;20324;-69
2022/12/08 20:49:32;;;;;;;3.90;2.23;;;;;;;;;;20782946;28;20226;-69
2022/12/08 20:59:34;;;;;;;3.27;1.93;;;;;;;;;;20814661;28;20227;-69
2022/12/08 21:09:36;;;;;;;2.53;1.30;;;3.80;99.90;;;;;;20807114;28;20223;-69
2022/12/08 21:19:38;;;;;;;2.37;1.63;;;;;;;;;;20811576;28;20593;-69
2022/12/08 21:29:40;;;;;;;2.13;1.53;;;;;;;;;;20812343;28;20242;-69
2022/12/08 21:39:42;;;;;;;2.27;1.50;;;;;;;;;;20815803;28;20257;-69
2022/12/08 21:49:43;;;;;;;3.17;2.03;;;;;;;;;;20815200;28;20267;-69
2022/12/08 21:59:46;;;;;;;2.30;1.50;;;;;;;;;;20813030;28;20234;-69
2022/12/08 22:09:48;;;;;;;2.53;1.87;;;;;;;;;;20817832;28;20241;-69
2022/12/08 22:19:50;;;;;;;3.13;2.10;;;;;;;;;;20809281;28;20288;-69
2022/12/08 22:29:53;;;;;;;3.33;1.97;;;;;;;;;;20776973;28;20245;-69
2022/12/08 22:39:55;;;;;;;3.63;1.90;;;;;;;;;;20817951;28;20686;-68
2022/12/08 22:49:57;;;;;;;4.87;2.07;;;;;;;;;;20827661;28;20214;-69
2022/12/08 22:59:59;;;;;;;3.50;2.07;;;;;;;;;;20826560;28;20308;-69
2022/12/08 23:10:01;;;;;;;3.63;2.33;;;;;;;;;;20829958;28;20767;-69
2022/12/08 23:20:03;;;;;;;3.43;2.27;;;;;;;;;;20827033;28;20288;-69
2022/12/08 23:30:06;;;;;;;3.87;2.33;;;;;;;;;;20829923;28;20214;-69
2022/12/08 23:40:08;;;;;;;5.70;1.50;;;;;;;;;;20819090;28;20234;-69
2022/12/08 23:50:10;;;;;;;3.70;2.23;;;;;;;;;;20824111;28;20264;-69
